Cap Felix — ONFH — position and weather

sailwx.info

Track history (hours):
 
Tides and Currents Weather Stations Pressure Air Temp Water Temp Dewpoint Dewpoint Depression Visibility Wind Speed Wind Dir Waves Ship Positions

Cap Felix

Last reported at 2014-Dec-16 18:33 UTC. Time now 2014-Dec-22 11:20 UTC.
Position N 36°32' E 023°44'.

Length 275 m; draft 8.8 m.

Type: Tanker. MMSI: 205517000.

Date/timePositionNaut miles runAvg speedWind from/ knotsBaromVisibWave heightAir tempDewpointWater temp
2014-Dec-16 18:33N 36°32' E 023°44'7 7.5
2014-Dec-16 17:33N 36°37' E 023°50'7 7.3
2014-Dec-16 16:34N 36°43' E 023°56'7 7.0
2014-Dec-16 15:33N 36°50' E 023°57'7 7.0
2014-Dec-16 14:34N 36°57' E 023°57'7 7.3
2014-Dec-16 13:34N 37°04' E 023°55'25 7.4
2014-Dec-16 10:06N 37°28' E 023°46'4 7.4
2014-Dec-16 09:33N 37°32' E 023°45'7 7.3
2014-Dec-16 08:34N 37°39' E 023°43'8 7.6
2014-Dec-16 07:33N 37°46' E 023°38'8 7.6
2014-Dec-16 06:33N 37°51' E 023°31'1 1.2
2014-Dec-16 05:32N 37°52' E 023°30'0 0.0
2014-Dec-16 03:32N 37°52' E 023°30'0 0.0
2014-Dec-16 02:32N 37°52' E 023°30'0 0.1
2014-Dec-16 01:33N 37°52' E 023°30'0 0.1
2014-Dec-15 23:32N 37°52' E 023°30'0 0.1
2014-Dec-15 22:32N 37°52' E 023°30'0 0.1
2014-Dec-15 21:32N 37°52' E 023°30'0 0.0
2014-Dec-15 20:32N 37°52' E 023°30'0 0.1
2014-Dec-15 19:32N 37°52' E 023°30'0 0.0
2014-Dec-15 18:32N 37°52' E 023°30'0 0.0
2014-Dec-15 17:32N 37°52' E 023°30'0 0.0
2014-Dec-15 16:32N 37°52' E 023°30'0 0.0
2014-Dec-15 15:32N 37°52' E 023°30'0 0.1
2014-Dec-15 14:32N 37°52' E 023°30'0 0.2
2014-Dec-15 13:32N 37°52' E 023°30'0 0.0
2014-Dec-15 12:32N 37°52' E 023°30'0 0.0
2014-Dec-15 11:32N 37°52' E 023°30'0 0.0
2014-Dec-15 10:32N 37°52' E 023°30'0 0.0
2014-Dec-15 09:32N 37°52' E 023°30'0 0.0
2014-Dec-15 08:32N 37°52' E 023°30'0 0.0
2014-Dec-15 07:32N 37°52' E 023°30'0 0.0
2014-Dec-15 06:29N 37°52' E 023°30'0 0.0
2014-Dec-15 05:32N 37°52' E 023°30'0 0.0
2014-Dec-15 04:32N 37°52' E 023°30'0 0.1
2014-Dec-15 03:32N 37°52' E 023°30'0 0.1
2014-Dec-15 02:32N 37°52' E 023°29'0 0.0
2014-Dec-15 01:32N 37°52' E 023°29'0 0.1
2014-Dec-15 00:32N 37°52' E 023°30'0 0.1
2014-Dec-14 23:32N 37°52' E 023°29'0 0.0
2014-Dec-14 22:32N 37°52' E 023°29'0 0.1
2014-Dec-14 21:32N 37°52' E 023°30'0 0.0
2014-Dec-14 20:32N 37°52' E 023°29'0 0.1
2014-Dec-14 19:32N 37°52' E 023°30'0 0.0
2014-Dec-14 18:32N 37°52' E 023°30'0 0.0
2014-Dec-14 17:32N 37°52' E 023°30'0 0.0
2014-Dec-14 16:32N 37°52' E 023°30'0 0.0
2014-Dec-14 15:32N 37°52' E 023°30'0 0.0
2014-Dec-14 14:32N 37°52' E 023°30'0 0.0
2014-Dec-14 13:32N 37°52' E 023°30'0 0.0
2014-Dec-14 12:29N 37°52' E 023°30'0 0.0
2014-Dec-14 11:32N 37°52' E 023°30'0 0.0
2014-Dec-14 10:32N 37°52' E 023°30'0 0.1
2014-Dec-14 09:32N 37°52' E 023°30'0 0.0
2014-Dec-14 08:32N 37°52' E 023°30'0 0.2
2014-Dec-14 07:32N 37°52' E 023°30'0 0.1
2014-Dec-14 06:32N 37°52' E 023°30'0 0.0
2014-Dec-14 05:32N 37°52' E 023°30'0 0.0
2014-Dec-14 04:32N 37°52' E 023°30'0 0.0
2014-Dec-14 03:32N 37°52' E 023°30'0 0.1
2014-Dec-14 02:32N 37°52' E 023°30'0 0.0
2014-Dec-14 01:32N 37°52' E 023°30'0 0.0
2014-Dec-14 00:32N 37°52' E 023°30'0 0.0
2014-Dec-13 23:32N 37°52' E 023°30'0 0.0
2014-Dec-13 22:32N 37°52' E 023°30'0 0.0
2014-Dec-13 21:32N 37°52' E 023°30'0 0.0
2014-Dec-13 20:32N 37°52' E 023°30'0 0.0
2014-Dec-13 19:32N 37°52' E 023°30'0 0.0
2014-Dec-13 18:32N 37°52' E 023°30'0 0.0
2014-Dec-13 17:32N 37°52' E 023°30'0 0.0
2014-Dec-13 16:32N 37°52' E 023°30'0 0.0
2014-Dec-13 15:32N 37°52' E 023°30'0 0.0
2014-Dec-13 14:32N 37°52' E 023°30'0 0.0
2014-Dec-13 13:32N 37°52' E 023°30'0 0.0
2014-Dec-13 12:32N 37°52' E 023°30'0 0.0
2014-Dec-13 11:32N 37°52' E 023°30'0 0.0
2014-Dec-13 10:32N 37°52' E 023°30'0 0.0
2014-Dec-13 09:32N 37°52' E 023°30'0 0.1
2014-Dec-13 08:32N 37°52' E 023°30'0 0.0
2014-Dec-13 07:32N 37°52' E 023°30'0 0.1
2014-Dec-13 06:32N 37°52' E 023°30'0 0.0
2014-Dec-13 05:32N 37°52' E 023°30'0 0.1
2014-Dec-13 04:32N 37°52' E 023°30'0 0.2
2014-Dec-13 03:32N 37°52' E 023°30'0 0.1
2014-Dec-13 02:32N 37°52' E 023°30'0 0.0
2014-Dec-13 01:32N 37°52' E 023°30'0 0.1
2014-Dec-13 00:32N 37°52' E 023°30'0 0.1
2014-Dec-12 23:32N 37°52' E 023°30'0 0.1
2014-Dec-12 22:32N 37°52' E 023°30'0 0.1
2014-Dec-12 21:32N 37°52' E 023°30'0 0.1
2014-Dec-12 20:32N 37°52' E 023°30'0 0.1
2014-Dec-12 19:32N 37°52' E 023°30'0 0.0
2014-Dec-12 18:32N 37°52' E 023°30'0 0.0
2014-Dec-12 17:32N 37°52' E 023°30'0 0.0
2014-Dec-12 16:32N 37°52' E 023°30'0 0.0
2014-Dec-12 15:32N 37°52' E 023°30'0 0.1
2014-Dec-12 14:32N 37°52' E 023°30'0 0.2
2014-Dec-12 13:32N 37°52' E 023°30'0 0.1
2014-Dec-12 12:32N 37°52' E 023°30'0 0.1
2014-Dec-12 11:32N 37°52' E 023°30'0 0.1
2014-Dec-12 10:32N 37°52' E 023°30'0 0.0
2014-Dec-12 09:32N 37°52' E 023°30'0 0.1
2014-Dec-12 08:32N 37°52' E 023°30'0 0.0
2014-Dec-12 07:32N 37°52' E 023°30'0 0.1
2014-Dec-12 06:32N 37°52' E 023°30'0 0.0
2014-Dec-12 05:32N 37°52' E 023°30'0 0.0
2014-Dec-12 04:32N 37°52' E 023°30'0 0.0
2014-Dec-12 03:32N 37°52' E 023°30'0 0.0
2014-Dec-12 02:32N 37°52' E 023°30'0 0.0
2014-Dec-12 01:32N 37°52' E 023°30'0 0.0
2014-Dec-12 00:32N 37°52' E 023°30'0 0.0
2014-Dec-11 23:32N 37°52' E 023°30'0 0.0
2014-Dec-11 22:32N 37°52' E 023°30'0 0.0
2014-Dec-11 21:32N 37°52' E 023°30'0 0.1
2014-Dec-11 20:32N 37°52' E 023°30'0 0.0
2014-Dec-11 19:32N 37°52' E 023°30'0 0.0
2014-Dec-11 18:32N 37°52' E 023°30'0 0.0
2014-Dec-11 17:32N 37°52' E 023°30'0 0.1
2014-Dec-11 16:32N 37°52' E 023°29'0 0.1
2014-Dec-11 15:32N 37°52' E 023°30'0 0.1
2014-Dec-11 14:32N 37°52' E 023°30'0 0.2
2014-Dec-11 13:32N 37°52' E 023°29'0 0.2
2014-Dec-11 12:32N 37°52' E 023°30'0 0.0
2014-Dec-11 11:32N 37°52' E 023°30'0 0.2
2014-Dec-11 10:32N 37°52' E 023°30'0 0.0
2014-Dec-11 09:32N 37°52' E 023°30'0 0.0
2014-Dec-11 08:32N 37°52' E 023°30'0 0.0
2014-Dec-11 07:32N 37°52' E 023°30'0 0.2
2014-Dec-11 06:32N 37°52' E 023°30'0 0.0
2014-Dec-11 05:32N 37°52' E 023°30'0 0.0
2014-Dec-11 04:32N 37°52' E 023°30'0 0.0
2014-Dec-11 03:32N 37°52' E 023°30'0 0.0
2014-Dec-11 02:32N 37°52' E 023°30'0 0.1
2014-Dec-11 01:32N 37°52' E 023°30'0 0.0
2014-Dec-11 00:32N 37°52' E 023°30'0 0.1
2014-Dec-10 23:32N 37°52' E 023°30'0 0.0
2014-Dec-10 22:32N 37°52' E 023°30'0 0.0
2014-Dec-10 21:32N 37°52' E 023°30'0 0.1
2014-Dec-10 20:32N 37°52' E 023°30'0 0.0
2014-Dec-10 19:32N 37°52' E 023°30'0 0.0
2014-Dec-10 18:32N 37°52' E 023°30'0 0.1
2014-Dec-10 17:32N 37°52' E 023°30'0 0.0
2014-Dec-10 16:32N 37°52' E 023°30'0 0.1
2014-Dec-10 15:33N 37°52' E 023°29'0 0.0
2014-Dec-10 14:33N 37°52' E 023°30'0 0.0
2014-Dec-10 12:13N 37°52' E 023°29'8 0.2
2014-Dec-09 02:16N 37°58' E 023°23'0 0.0
2014-Dec-09 01:31N 37°58' E 023°23'0 0.0
2014-Dec-09 00:31N 37°58' E 023°23'0 0.0
2014-Dec-08 23:31N 37°58' E 023°23'0 0.0
2014-Dec-08 22:31N 37°58' E 023°23'0 0.0
2014-Dec-08 21:31N 37°58' E 023°23'0 0.0
2014-Dec-08 20:31N 37°58' E 023°23'0 0.0
2014-Dec-08 19:31N 37°58' E 023°23'0 0.0
2014-Dec-08 18:31N 37°58' E 023°23'0 0.0
2014-Dec-08 17:33N 37°58' E 023°23'0 0.0
2014-Dec-08 16:34N 37°58' E 023°23'0 0.0
2014-Dec-08 15:33N 37°58' E 023°23'0 0.0
2014-Dec-08 14:34N 37°58' E 023°23'0 0.0
2014-Dec-08 13:34N 37°58' E 023°23'0 0.0
2014-Dec-08 12:31N 37°58' E 023°23'2 2.3
2014-Dec-08 11:33N 37°56' E 023°23'1 0.8
2014-Dec-08 10:33N 37°56' E 023°22'7 6.7
2014-Dec-08 09:33N 37°51' E 023°16'2 1.9
2014-Dec-08 08:33N 37°50' E 023°14'1 0.7
2014-Dec-08 07:33N 37°51' E 023°14'1 1.0
2014-Dec-08 06:33N 37°52' E 023°14'1 0.9
2014-Dec-08 05:33N 37°53' E 023°15'0 0.2
2014-Dec-08 04:33N 37°53' E 023°15'0 0.2
2014-Dec-08 03:33N 37°53' E 023°16'0 0.2
2014-Dec-08 02:33N 37°53' E 023°16'0 0.3
2014-Dec-08 01:33N 37°52' E 023°16'0 0.4
2014-Dec-08 00:33N 37°52' E 023°15'0 0.2
2014-Dec-07 23:33N 37°52' E 023°15'0 0.4
2014-Dec-07 22:33N 37°52' E 023°15'0 0.4
2014-Dec-07 21:33N 37°53' E 023°15'0 0.3
2014-Dec-07 20:33N 37°53' E 023°15'0 0.4
2014-Dec-07 19:33N 37°53' E 023°14'0 0.3
2014-Dec-07 18:33N 37°54' E 023°14'0 0.4
2014-Dec-07 17:33N 37°54' E 023°15'0 0.4
2014-Dec-07 16:33N 37°54' E 023°15'0 0.3
2014-Dec-07 15:33N 37°54' E 023°16'0 0.3
2014-Dec-07 14:33N 37°54' E 023°16'0 0.4
2014-Dec-07 13:33N 37°54' E 023°16'0 0.2
2014-Dec-07 12:33N 37°53' E 023°16'6 5.8
2014-Dec-07 11:33N 37°57' E 023°22'0 0.4
2014-Dec-07 10:33N 37°57' E 023°22'0 0.0
2014-Dec-07 09:27N 37°57' E 023°22'0 0.0
2014-Dec-07 08:33N 37°57' E 023°22'0 0.0
2014-Dec-07 07:33N 37°57' E 023°22'0 0.1
2014-Dec-07 06:33N 37°57' E 023°22'0 0.0
2014-Dec-07 05:33N 37°57' E 023°22'0 0.1
2014-Dec-07 04:33N 37°57' E 023°22'0 0.0
2014-Dec-07 03:33N 37°57' E 023°22'0 0.0
2014-Dec-07 02:33N 37°57' E 023°22'0 0.0
2014-Dec-07 01:33N 37°57' E 023°22'0 0.1
2014-Dec-07 00:33N 37°57' E 023°22'0 0.1
2014-Dec-06 23:33N 37°57' E 023°22'0 0.1
2014-Dec-06 22:33N 37°57' E 023°23'0 0.1
2014-Dec-06 21:33N 37°57' E 023°22'0 0.1
2014-Dec-06 20:33N 37°57' E 023°22'0 0.0
2014-Dec-06 19:33N 37°57' E 023°22'  
Track history (hours):
 
Tides and Currents Weather Stations Pressure Air Temp Water Temp Dewpoint Dewpoint Depression Visibility Wind Speed Wind Dir Waves Ship Positions

Cap Felix

Last reported at 2014-Dec-16 18:33 UTC. Time now 2014-Dec-22 11:20 UTC.
Position N 36°32' E 023°44'.

Length 275 m; draft 8.8 m.

Type: Tanker. MMSI: 205517000.

Date/timePositionNaut miles runAvg speedWind from/ knotsBaromVisibWave heightAir tempDewpointWater temp
2014-Dec-16 18:33N 36°32' E 023°44'7 7.5
2014-Dec-16 17:33N 36°37' E 023°50'7 7.3
2014-Dec-16 16:34N 36°43' E 023°56'7 7.0
2014-Dec-16 15:33N 36°50' E 023°57'7 7.0
2014-Dec-16 14:34N 36°57' E 023°57'7 7.3
2014-Dec-16 13:34N 37°04' E 023°55'25 7.4
2014-Dec-16 10:06N 37°28' E 023°46'4 7.4
2014-Dec-16 09:33N 37°32' E 023°45'7 7.3
2014-Dec-16 08:34N 37°39' E 023°43'8 7.6
2014-Dec-16 07:33N 37°46' E 023°38'8 7.6
2014-Dec-16 06:33N 37°51' E 023°31'1 1.2
2014-Dec-16 05:32N 37°52' E 023°30'0 0.0
2014-Dec-16 03:32N 37°52' E 023°30'0 0.0
2014-Dec-16 02:32N 37°52' E 023°30'0 0.1
2014-Dec-16 01:33N 37°52' E 023°30'0 0.1
2014-Dec-15 23:32N 37°52' E 023°30'0 0.1
2014-Dec-15 22:32N 37°52' E 023°30'0 0.1
2014-Dec-15 21:32N 37°52' E 023°30'0 0.0
2014-Dec-15 20:32N 37°52' E 023°30'0 0.1
2014-Dec-15 19:32N 37°52' E 023°30'0 0.0
2014-Dec-15 18:32N 37°52' E 023°30'0 0.0
2014-Dec-15 17:32N 37°52' E 023°30'0 0.0
2014-Dec-15 16:32N 37°52' E 023°30'0 0.0
2014-Dec-15 15:32N 37°52' E 023°30'0 0.1
2014-Dec-15 14:32N 37°52' E 023°30'0 0.2
2014-Dec-15 13:32N 37°52' E 023°30'0 0.0
2014-Dec-15 12:32N 37°52' E 023°30'0 0.0
2014-Dec-15 11:32N 37°52' E 023°30'0 0.0
2014-Dec-15 10:32N 37°52' E 023°30'0 0.0
2014-Dec-15 09:32N 37°52' E 023°30'0 0.0
2014-Dec-15 08:32N 37°52' E 023°30'0 0.0
2014-Dec-15 07:32N 37°52' E 023°30'0 0.0
2014-Dec-15 06:29N 37°52' E 023°30'0 0.0
2014-Dec-15 05:32N 37°52' E 023°30'0 0.0
2014-Dec-15 04:32N 37°52' E 023°30'0 0.1
2014-Dec-15 03:32N 37°52' E 023°30'0 0.1
2014-Dec-15 02:32N 37°52' E 023°29'0 0.0
2014-Dec-15 01:32N 37°52' E 023°29'0 0.1
2014-Dec-15 00:32N 37°52' E 023°30'0 0.1
2014-Dec-14 23:32N 37°52' E 023°29'0 0.0
2014-Dec-14 22:32N 37°52' E 023°29'0 0.1
2014-Dec-14 21:32N 37°52' E 023°30'0 0.0
2014-Dec-14 20:32N 37°52' E 023°29'0 0.1
2014-Dec-14 19:32N 37°52' E 023°30'0 0.0
2014-Dec-14 18:32N 37°52' E 023°30'0 0.0
2014-Dec-14 17:32N 37°52' E 023°30'0 0.0
2014-Dec-14 16:32N 37°52' E 023°30'0 0.0
2014-Dec-14 15:32N 37°52' E 023°30'0 0.0
2014-Dec-14 14:32N 37°52' E 023°30'0 0.0
2014-Dec-14 13:32N 37°52' E 023°30'0 0.0
2014-Dec-14 12:29N 37°52' E 023°30'0 0.0
2014-Dec-14 11:32N 37°52' E 023°30'0 0.0
2014-Dec-14 10:32N 37°52' E 023°30'0 0.1
2014-Dec-14 09:32N 37°52' E 023°30'0 0.0
2014-Dec-14 08:32N 37°52' E 023°30'0 0.2
2014-Dec-14 07:32N 37°52' E 023°30'0 0.1
2014-Dec-14 06:32N 37°52' E 023°30'0 0.0
2014-Dec-14 05:32N 37°52' E 023°30'0 0.0
2014-Dec-14 04:32N 37°52' E 023°30'0 0.0
2014-Dec-14 03:32N 37°52' E 023°30'0 0.1
2014-Dec-14 02:32N 37°52' E 023°30'0 0.0
2014-Dec-14 01:32N 37°52' E 023°30'0 0.0
2014-Dec-14 00:32N 37°52' E 023°30'0 0.0
2014-Dec-13 23:32N 37°52' E 023°30'0 0.0
2014-Dec-13 22:32N 37°52' E 023°30'0 0.0
2014-Dec-13 21:32N 37°52' E 023°30'0 0.0
2014-Dec-13 20:32N 37°52' E 023°30'0 0.0
2014-Dec-13 19:32N 37°52' E 023°30'0 0.0
2014-Dec-13 18:32N 37°52' E 023°30'0 0.0
2014-Dec-13 17:32N 37°52' E 023°30'0 0.0
2014-Dec-13 16:32N 37°52' E 023°30'0 0.0
2014-Dec-13 15:32N 37°52' E 023°30'0 0.0
2014-Dec-13 14:32N 37°52' E 023°30'0 0.0
2014-Dec-13 13:32N 37°52' E 023°30'0 0.0
2014-Dec-13 12:32N 37°52' E 023°30'0 0.0
2014-Dec-13 11:32N 37°52' E 023°30'0 0.0
2014-Dec-13 10:32N 37°52' E 023°30'0 0.0
2014-Dec-13 09:32N 37°52' E 023°30'0 0.1
2014-Dec-13 08:32N 37°52' E 023°30'0 0.0
2014-Dec-13 07:32N 37°52' E 023°30'0 0.1
2014-Dec-13 06:32N 37°52' E 023°30'0 0.0
2014-Dec-13 05:32N 37°52' E 023°30'0 0.1
2014-Dec-13 04:32N 37°52' E 023°30'0 0.2
2014-Dec-13 03:32N 37°52' E 023°30'0 0.1
2014-Dec-13 02:32N 37°52' E 023°30'0 0.0
2014-Dec-13 01:32N 37°52' E 023°30'0 0.1
2014-Dec-13 00:32N 37°52' E 023°30'0 0.1
2014-Dec-12 23:32N 37°52' E 023°30'0 0.1
2014-Dec-12 22:32N 37°52' E 023°30'0 0.1
2014-Dec-12 21:32N 37°52' E 023°30'0 0.1
2014-Dec-12 20:32N 37°52' E 023°30'0 0.1
2014-Dec-12 19:32N 37°52' E 023°30'0 0.0
2014-Dec-12 18:32N 37°52' E 023°30'0 0.0
2014-Dec-12 17:32N 37°52' E 023°30'0 0.0
2014-Dec-12 16:32N 37°52' E 023°30'0 0.0
2014-Dec-12 15:32N 37°52' E 023°30'0 0.1
2014-Dec-12 14:32N 37°52' E 023°30'0 0.2
2014-Dec-12 13:32N 37°52' E 023°30'0 0.1
2014-Dec-12 12:32N 37°52' E 023°30'0 0.1
2014-Dec-12 11:32N 37°52' E 023°30'0 0.1
2014-Dec-12 10:32N 37°52' E 023°30'0 0.0
2014-Dec-12 09:32N 37°52' E 023°30'0 0.1
2014-Dec-12 08:32N 37°52' E 023°30'0 0.0
2014-Dec-12 07:32N 37°52' E 023°30'0 0.1
2014-Dec-12 06:32N 37°52' E 023°30'0 0.0
2014-Dec-12 05:32N 37°52' E 023°30'0 0.0
2014-Dec-12 04:32N 37°52' E 023°30'0 0.0
2014-Dec-12 03:32N 37°52' E 023°30'0 0.0
2014-Dec-12 02:32N 37°52' E 023°30'0 0.0
2014-Dec-12 01:32N 37°52' E 023°30'0 0.0
2014-Dec-12 00:32N 37°52' E 023°30'0 0.0
2014-Dec-11 23:32N 37°52' E 023°30'0 0.0
2014-Dec-11 22:32N 37°52' E 023°30'0 0.0
2014-Dec-11 21:32N 37°52' E 023°30'0 0.1
2014-Dec-11 20:32N 37°52' E 023°30'0 0.0
2014-Dec-11 19:32N 37°52' E 023°30'0 0.0
2014-Dec-11 18:32N 37°52' E 023°30'0 0.0
2014-Dec-11 17:32N 37°52' E 023°30'0 0.1
2014-Dec-11 16:32N 37°52' E 023°29'0 0.1
2014-Dec-11 15:32N 37°52' E 023°30'0 0.1
2014-Dec-11 14:32N 37°52' E 023°30'0 0.2
2014-Dec-11 13:32N 37°52' E 023°29'0 0.2
2014-Dec-11 12:32N 37°52' E 023°30'0 0.0
2014-Dec-11 11:32N 37°52' E 023°30'0 0.2
2014-Dec-11 10:32N 37°52' E 023°30'0 0.0
2014-Dec-11 09:32N 37°52' E 023°30'0 0.0
2014-Dec-11 08:32N 37°52' E 023°30'0 0.0
2014-Dec-11 07:32N 37°52' E 023°30'0 0.2
2014-Dec-11 06:32N 37°52' E 023°30'0 0.0
2014-Dec-11 05:32N 37°52' E 023°30'0 0.0
2014-Dec-11 04:32N 37°52' E 023°30'0 0.0
2014-Dec-11 03:32N 37°52' E 023°30'0 0.0
2014-Dec-11 02:32N 37°52' E 023°30'0 0.1
2014-Dec-11 01:32N 37°52' E 023°30'0 0.0
2014-Dec-11 00:32N 37°52' E 023°30'0 0.1
2014-Dec-10 23:32N 37°52' E 023°30'0 0.0
2014-Dec-10 22:32N 37°52' E 023°30'0 0.0
2014-Dec-10 21:32N 37°52' E 023°30'0 0.1
2014-Dec-10 20:32N 37°52' E 023°30'0 0.0
2014-Dec-10 19:32N 37°52' E 023°30'0 0.0
2014-Dec-10 18:32N 37°52' E 023°30'0 0.1
2014-Dec-10 17:32N 37°52' E 023°30'0 0.0
2014-Dec-10 16:32N 37°52' E 023°30'0 0.1
2014-Dec-10 15:33N 37°52' E 023°29'0 0.0
2014-Dec-10 14:33N 37°52' E 023°30'0 0.0
2014-Dec-10 12:13N 37°52' E 023°29'8 0.2
2014-Dec-09 02:16N 37°58' E 023°23'0 0.0
2014-Dec-09 01:31N 37°58' E 023°23'0 0.0
2014-Dec-09 00:31N 37°58' E 023°23'0 0.0
2014-Dec-08 23:31N 37°58' E 023°23'0 0.0
2014-Dec-08 22:31N 37°58' E 023°23'0 0.0
2014-Dec-08 21:31N 37°58' E 023°23'0 0.0
2014-Dec-08 20:31N 37°58' E 023°23'0 0.0
2014-Dec-08 19:31N 37°58' E 023°23'0 0.0
2014-Dec-08 18:31N 37°58' E 023°23'0 0.0
2014-Dec-08 17:33N 37°58' E 023°23'0 0.0
2014-Dec-08 16:34N 37°58' E 023°23'0 0.0
2014-Dec-08 15:33N 37°58' E 023°23'0 0.0
2014-Dec-08 14:34N 37°58' E 023°23'0 0.0
2014-Dec-08 13:34N 37°58' E 023°23'0 0.0
2014-Dec-08 12:31N 37°58' E 023°23'2 2.3
2014-Dec-08 11:33N 37°56' E 023°23'1 0.8
2014-Dec-08 10:33N 37°56' E 023°22'7 6.7
2014-Dec-08 09:33N 37°51' E 023°16'2 1.9
2014-Dec-08 08:33N 37°50' E 023°14'1 0.7
2014-Dec-08 07:33N 37°51' E 023°14'1 1.0
2014-Dec-08 06:33N 37°52' E 023°14'1 0.9
2014-Dec-08 05:33N 37°53' E 023°15'0 0.2
2014-Dec-08 04:33N 37°53' E 023°15'0 0.2
2014-Dec-08 03:33N 37°53' E 023°16'0 0.2
2014-Dec-08 02:33N 37°53' E 023°16'0 0.3
2014-Dec-08 01:33N 37°52' E 023°16'0 0.4
2014-Dec-08 00:33N 37°52' E 023°15'0 0.2
2014-Dec-07 23:33N 37°52' E 023°15'0 0.4
2014-Dec-07 22:33N 37°52' E 023°15'0 0.4
2014-Dec-07 21:33N 37°53' E 023°15'0 0.3
2014-Dec-07 20:33N 37°53' E 023°15'0 0.4
2014-Dec-07 19:33N 37°53' E 023°14'0 0.3
2014-Dec-07 18:33N 37°54' E 023°14'0 0.4
2014-Dec-07 17:33N 37°54' E 023°15'0 0.4
2014-Dec-07 16:33N 37°54' E 023°15'0 0.3
2014-Dec-07 15:33N 37°54' E 023°16'0 0.3
2014-Dec-07 14:33N 37°54' E 023°16'0 0.4
2014-Dec-07 13:33N 37°54' E 023°16'0 0.2
2014-Dec-07 12:33N 37°53' E 023°16'6 5.8
2014-Dec-07 11:33N 37°57' E 023°22'0 0.4
2014-Dec-07 10:33N 37°57' E 023°22'0 0.0
2014-Dec-07 09:27N 37°57' E 023°22'0 0.0
2014-Dec-07 08:33N 37°57' E 023°22'0 0.0
2014-Dec-07 07:33N 37°57' E 023°22'0 0.1
2014-Dec-07 06:33N 37°57' E 023°22'0 0.0
2014-Dec-07 05:33N 37°57' E 023°22'0 0.1
2014-Dec-07 04:33N 37°57' E 023°22'0 0.0
2014-Dec-07 03:33N 37°57' E 023°22'0 0.0
2014-Dec-07 02:33N 37°57' E 023°22'0 0.0
2014-Dec-07 01:33N 37°57' E 023°22'0 0.1
2014-Dec-07 00:33N 37°57' E 023°22'0 0.1
2014-Dec-06 23:33N 37°57' E 023°22'0 0.1
2014-Dec-06 22:33N 37°57' E 023°23'0 0.1
2014-Dec-06 21:33N 37°57' E 023°22'0 0.1
2014-Dec-06 20:33N 37°57' E 023°22'0 0.0
2014-Dec-06 19:33N 37°57' E 023°22'  

Dump ship's entire track history